createdAt,value
2023-03-05T00:01:31.985Z,56.36
2023-03-05T00:04:01.870Z,56.42
2023-03-05T00:06:32.009Z,56.48
2023-03-05T00:09:00.371Z,56.68
2023-03-05T00:11:31.270Z,56.88
2023-03-05T00:14:03.658Z,56.81
2023-03-05T00:16:32.862Z,57.09
2023-03-05T00:19:01.720Z,56.82
2023-03-05T00:21:35.701Z,57.23
2023-03-05T00:24:07.142Z,57.04
2023-03-05T00:26:37.068Z,57.25
2023-03-05T00:29:05.964Z,57.40
2023-03-05T00:31:36.121Z,57.23
2023-03-05T00:34:08.135Z,57.28
2023-03-05T00:36:41.039Z,57.55
2023-03-05T00:39:11.223Z,57.57
2023-03-05T00:41:40.103Z,57.46
2023-03-05T00:44:08.261Z,57.58
2023-03-05T00:46:37.800Z,57.54
2023-03-05T00:49:06.228Z,57.44
2023-03-05T00:51:34.289Z,57.49
2023-03-05T00:54:02.720Z,57.81
2023-03-05T00:56:31.184Z,57.80
2023-03-05T00:58:59.363Z,57.83
2023-03-05T01:01:29.270Z,57.86
2023-03-05T01:03:58.012Z,58.08
2023-03-05T01:06:26.001Z,58.02
2023-03-05T01:08:54.603Z,57.89
2023-03-05T01:11:22.920Z,58.04
2023-03-05T01:13:50.976Z,58.00
2023-03-05T01:16:19.572Z,57.74
2023-03-05T01:18:47.618Z,58.04
2023-03-05T01:21:16.963Z,58.07
2023-03-05T01:23:45.141Z,58.14
2023-03-05T01:26:13.848Z,57.96
2023-03-05T01:28:41.877Z,58.02
2023-03-05T01:31:11.497Z,58.19
2023-03-05T01:33:39.962Z,58.13
2023-03-05T01:36:12.000Z,58.53
2023-03-05T01:38:42.134Z,58.60
2023-03-05T01:41:12.030Z,58.46
2023-03-05T01:43:41.131Z,58.50
2023-03-05T01:46:39.287Z,58.59
2023-03-05T01:49:20.083Z,58.64
2023-03-05T01:51:52.132Z,58.54
2023-03-05T01:54:22.923Z,58.61
2023-03-05T01:56:54.247Z,58.82
2023-03-05T01:59:25.574Z,58.70
2023-03-05T02:01:57.348Z,58.70
2023-03-05T02:04:34.639Z,58.65
2023-03-05T02:07:03.509Z,59.13
2023-03-05T02:09:31.590Z,58.96
2023-03-05T02:11:59.958Z,58.89
2023-03-05T02:14:28.627Z,58.85
2023-03-05T02:16:56.828Z,58.95
2023-03-05T02:19:24.923Z,59.01
2023-03-05T02:21:53.117Z,59.07
2023-03-05T02:24:37.560Z,59.01
2023-03-05T02:27:06.818Z,59.02
2023-03-05T02:29:39.042Z,58.75
2023-03-05T02:32:07.787Z,58.76
2023-03-05T02:34:37.568Z,58.86
2023-03-05T02:37:07.178Z,58.79
2023-03-05T02:39:35.855Z,58.81
2023-03-05T02:42:04.609Z,58.61
2023-03-05T02:44:33.493Z,58.34
2023-03-05T02:47:01.718Z,58.68
2023-03-05T02:49:29.922Z,58.75
2023-03-05T02:51:58.043Z,58.61
2023-03-05T02:54:26.265Z,58.85
2023-03-05T02:56:55.196Z,58.71
2023-03-05T02:59:23.250Z,58.81
2023-03-05T03:01:51.766Z,58.65
2023-03-05T03:04:19.815Z,58.75
2023-03-05T03:06:47.883Z,58.84
2023-03-05T03:09:16.084Z,58.65
2023-03-05T03:11:44.256Z,58.70
2023-03-05T03:14:12.364Z,58.47
2023-03-05T03:16:40.633Z,58.39
2023-03-05T03:19:09.180Z,58.39
2023-03-05T03:21:37.144Z,58.33
2023-03-05T03:24:05.687Z,58.19
2023-03-05T03:26:33.889Z,58.27
2023-03-05T03:29:02.042Z,58.25
2023-03-05T03:31:30.624Z,57.99
2023-03-05T03:33:58.658Z,58.07
2023-03-05T03:36:26.772Z,58.03
2023-03-05T03:38:54.972Z,58.05
2023-03-05T03:41:23.161Z,58.16
2023-03-05T03:43:51.426Z,58.34
2023-03-05T03:46:20.039Z,58.53
2023-03-05T03:48:51.286Z,58.21
2023-03-05T03:51:19.639Z,58.42
2023-03-05T03:53:48.053Z,58.10
2023-03-05T03:56:16.133Z,58.08
2023-03-05T03:58:45.395Z,58.08
2023-03-05T04:01:13.589Z,57.89
2023-03-05T04:03:41.856Z,57.94
2023-03-05T04:06:10.000Z,57.98
2023-03-05T04:08:38.162Z,57.90
2023-03-05T04:11:06.623Z,57.78
2023-03-05T04:13:34.983Z,57.66
2023-03-05T04:16:03.794Z,57.44
2023-03-05T04:18:32.673Z,57.67
2023-03-05T04:21:00.781Z,57.66
2023-03-05T04:23:28.950Z,57.69
2023-03-05T04:25:57.882Z,57.56
2023-03-05T04:28:26.955Z,57.98
2023-03-05T04:30:55.373Z,57.79
2023-03-05T04:33:24.117Z,57.79
2023-03-05T04:35:52.497Z,58.16
2023-03-05T04:38:20.835Z,58.21
2023-03-05T04:40:48.908Z,58.04
2023-03-05T04:43:17.038Z,58.23
2023-03-05T04:45:45.189Z,58.11
2023-03-05T04:48:13.337Z,58.23
2023-03-05T04:50:41.542Z,58.13
2023-03-05T04:53:09.561Z,58.45
2023-03-05T04:55:38.496Z,58.35
2023-03-05T04:58:07.043Z,58.27
2023-03-05T05:00:35.689Z,58.38
2023-03-05T05:03:04.047Z,58.35
2023-03-05T05:05:32.690Z,58.59
2023-03-05T05:08:00.837Z,58.41
2023-03-05T05:10:29.036Z,58.49
2023-03-05T05:12:57.556Z,58.60
2023-03-05T05:15:25.857Z,58.64
2023-03-05T05:17:54.516Z,58.52
2023-03-05T05:20:22.756Z,58.57
2023-03-05T05:22:51.628Z,58.67
2023-03-05T05:25:19.743Z,58.70
2023-03-05T05:27:47.993Z,58.68
2023-03-05T05:30:16.225Z,58.70
2023-03-05T05:32:44.293Z,58.55
2023-03-05T05:35:12.547Z,58.64
2023-03-05T05:37:40.808Z,58.73
2023-03-05T05:40:09.744Z,58.51
2023-03-05T05:42:38.006Z,58.69
2023-03-05T05:45:07.112Z,58.51
2023-03-05T05:47:35.311Z,58.58
2023-03-05T05:50:05.364Z,58.62
2023-03-05T05:52:33.710Z,58.56
2023-03-05T05:55:01.821Z,58.75
2023-03-05T05:57:29.865Z,58.47
2023-03-05T05:59:57.939Z,58.47
2023-03-05T06:02:26.021Z,58.42
2023-03-05T06:04:54.078Z,58.41
2023-03-05T06:07:22.222Z,58.40
2023-03-05T06:09:50.538Z,58.43
2023-03-05T06:12:21.946Z,58.28
2023-03-05T06:14:50.235Z,58.36
2023-03-05T06:17:29.885Z,58.38
2023-03-05T06:19:59.575Z,58.30
2023-03-05T06:22:28.174Z,58.29
2023-03-05T06:24:56.484Z,58.26
2023-03-05T06:27:24.740Z,58.30
2023-03-05T06:29:54.320Z,58.46
2023-03-05T06:32:23.381Z,58.52
2023-03-05T06:34:51.640Z,58.42
2023-03-05T06:37:19.806Z,58.44
2023-03-05T06:39:47.898Z,58.50
2023-03-05T06:42:16.400Z,58.34
2023-03-05T06:44:45.915Z,58.34
2023-03-05T06:47:15.537Z,58.19
2023-03-05T06:49:43.661Z,58.30
2023-03-05T06:52:11.841Z,58.37
2023-03-05T06:54:40.399Z,58.30
2023-03-05T06:57:10.837Z,58.27
2023-03-05T06:59:38.902Z,58.20
2023-03-05T07:02:11.073Z,58.32
2023-03-05T07:04:39.601Z,58.46
2023-03-05T07:07:07.827Z,58.23
2023-03-05T07:09:36.206Z,57.90
2023-03-05T07:12:04.629Z,57.40
2023-03-05T07:14:32.952Z,56.86
2023-03-05T07:17:01.501Z,56.44
2023-03-05T07:19:29.686Z,56.11
2023-03-05T07:21:57.737Z,55.91
2023-03-05T07:24:25.957Z,55.60
2023-03-05T07:26:54.083Z,55.11
2023-03-05T07:29:22.369Z,54.49
2023-03-05T07:31:50.896Z,53.01
2023-03-05T07:34:19.048Z,52.77
2023-03-05T07:36:50.716Z,51.43
2023-03-05T07:39:19.524Z,51.03
2023-03-05T07:41:48.423Z,50.29
2023-03-05T07:44:16.636Z,49.83
2023-03-05T07:46:45.610Z,48.51
2023-03-05T07:49:13.780Z,47.16
2023-03-05T07:51:41.891Z,45.71
2023-03-05T07:54:11.376Z,44.84
2023-03-05T07:56:40.038Z,43.47
2023-03-05T07:59:12.101Z,42.16
2023-03-05T08:01:41.101Z,40.32
2023-03-05T08:04:09.464Z,38.66
2023-03-05T08:06:42.374Z,36.78
2023-03-05T08:09:10.632Z,34.67
2023-03-05T08:11:42.920Z,33.27
2023-03-05T08:14:12.402Z,32.16
2023-03-05T08:16:40.903Z,31.21
2023-03-05T08:19:11.005Z,31.12
2023-03-05T08:21:39.213Z,31.16
2023-03-05T08:24:09.467Z,31.28
2023-03-05T08:26:39.152Z,31.26
2023-03-05T08:29:09.345Z,31.21
2023-03-05T08:31:38.567Z,31.03
2023-03-05T08:34:07.681Z,30.09
2023-03-05T08:36:35.892Z,29.67
2023-03-05T08:39:04.446Z,29.62
2023-03-05T08:41:32.989Z,29.73
2023-03-05T08:44:01.113Z,29.52
2023-03-05T08:46:29.325Z,29.80
2023-03-05T08:48:58.025Z,29.47
2023-03-05T08:51:26.498Z,29.64
2023-03-05T08:53:56.555Z,30.01
2023-03-05T08:56:25.535Z,30.29
2023-03-05T08:58:53.942Z,30.91
2023-03-05T09:01:22.127Z,31.40
2023-03-05T09:03:50.305Z,31.19
2023-03-05T09:06:19.068Z,31.02
2023-03-05T09:08:47.221Z,30.54
2023-03-05T09:11:16.285Z,29.96
2023-03-05T09:13:44.780Z,29.26
2023-03-05T09:16:16.761Z,28.09
2023-03-05T09:18:45.813Z,27.51
2023-03-05T09:21:17.992Z,26.49
2023-03-05T09:23:47.022Z,26.07
2023-03-05T09:26:16.824Z,25.21
2023-03-05T09:28:46.253Z,24.85
2023-03-05T09:31:14.391Z,24.62
2023-03-05T09:33:43.202Z,24.03
2023-03-05T09:36:28.048Z,24.10
2023-03-05T09:38:57.370Z,23.93
2023-03-05T09:41:46.096Z,24.42
2023-03-05T09:44:26.450Z,24.01
2023-03-05T09:47:16.187Z,23.76
2023-03-05T09:49:54.648Z,24.09
2023-03-05T09:52:54.325Z,23.32
2023-03-05T09:55:43.961Z,23.14
2023-03-05T09:58:17.979Z,22.58
2023-03-05T10:00:53.232Z,22.75
2023-03-05T10:03:32.703Z,21.93
2023-03-05T10:06:20.650Z,21.24
2023-03-05T10:08:58.756Z,20.77
2023-03-05T10:11:56.553Z,20.59
2023-03-05T10:14:38.684Z,20.19
2023-03-05T10:17:24.780Z,19.63
2023-03-05T10:20:15.749Z,18.91
2023-03-05T10:22:55.206Z,18.68
2023-03-05T10:25:24.098Z,18.36
2023-03-05T10:28:27.295Z,18.09
2023-03-05T10:31:23.547Z,18.40
2023-03-05T10:34:40.032Z,18.81
2023-03-05T10:37:38.186Z,19.72
2023-03-05T10:40:19.948Z,20.65
2023-03-05T10:43:07.144Z,21.31
2023-03-05T10:45:47.767Z,21.73
2023-03-05T10:48:42.236Z,21.47
2023-03-05T10:51:17.155Z,21.47
2023-03-05T10:53:57.076Z,21.49
2023-03-05T10:56:28.373Z,21.47
2023-03-05T10:58:56.491Z,21.38
2023-03-05T11:01:28.446Z,21.31
2023-03-05T11:03:59.463Z,21.47
2023-03-05T11:06:41.548Z,21.29
2023-03-05T11:09:25.596Z,21.26
2023-03-05T11:12:11.598Z,21.04
2023-03-05T11:15:07.449Z,20.85
2023-03-05T11:17:37.144Z,20.83
2023-03-05T11:20:33.335Z,20.64
2023-03-05T11:23:12.289Z,20.40
2023-03-05T11:25:59.705Z,20.50
2023-03-05T11:28:33.221Z,20.32
2023-03-05T11:31:16.744Z,21.08
2023-03-05T11:33:56.881Z,21.13
2023-03-05T11:36:26.644Z,21.25
2023-03-05T11:38:59.546Z,21.88
2023-03-05T11:41:51.227Z,21.86
2023-03-05T11:44:29.993Z,21.67
2023-03-05T11:47:22.917Z,21.60
2023-03-05T11:50:00.570Z,22.33
2023-03-05T11:52:34.122Z,23.26
2023-03-05T11:55:14.944Z,23.56
2023-03-05T11:58:12.716Z,24.61
2023-03-05T12:00:46.636Z,25.20
2023-03-05T12:03:19.651Z,25.38
2023-03-05T12:05:56.882Z,25.40
2023-03-05T12:08:32.956Z,25.52
2023-03-05T12:11:08.126Z,26.75
2023-03-05T12:13:43.334Z,28.18
2023-03-05T12:16:53.420Z,28.91
2023-03-05T12:19:40.886Z,29.72
2023-03-05T12:22:24.448Z,30.46
2023-03-05T12:24:53.171Z,31.17
2023-03-05T12:27:36.705Z,32.15
2023-03-05T12:30:05.688Z,32.92
2023-03-05T12:32:33.772Z,33.40
2023-03-05T12:35:06.422Z,34.04
2023-03-05T12:37:43.234Z,35.07
2023-03-05T12:40:29.900Z,35.69
2023-03-05T12:43:13.963Z,35.66
2023-03-05T12:45:43.183Z,36.28
2023-03-05T12:48:11.699Z,37.75
2023-03-05T12:50:49.594Z,37.86
2023-03-05T12:53:20.756Z,38.06
2023-03-05T12:56:01.269Z,38.11
2023-03-05T12:58:50.275Z,38.93
2023-03-05T13:01:37.547Z,39.20
2023-03-05T13:04:13.768Z,39.76
2023-03-05T13:06:42.477Z,40.24
2023-03-05T13:09:19.891Z,40.53
2023-03-05T13:11:52.002Z,41.22
2023-03-05T13:14:38.136Z,41.29
2023-03-05T13:17:29.353Z,40.96
2023-03-05T13:19:59.704Z,41.29
2023-03-05T13:22:28.515Z,41.96
2023-03-05T13:25:17.544Z,42.42
2023-03-05T13:27:45.621Z,42.93
2023-03-05T13:30:28.042Z,42.56
2023-03-05T13:33:05.558Z,43.06
2023-03-05T13:35:34.931Z,43.23
2023-03-05T13:38:03.525Z,43.78
2023-03-05T13:40:32.590Z,44.03
2023-03-05T13:43:12.890Z,44.35
2023-03-05T13:45:41.129Z,44.63
2023-03-05T13:48:19.846Z,45.16
2023-03-05T13:50:54.481Z,45.39
2023-03-05T13:53:29.556Z,45.63
2023-03-05T13:56:07.475Z,45.55
2023-03-05T13:58:47.359Z,46.24
2023-03-05T14:01:31.239Z,46.43
2023-03-05T14:04:20.007Z,46.68
2023-03-05T14:07:07.978Z,46.57
2023-03-05T14:09:41.864Z,46.52
2023-03-05T14:12:26.593Z,47.18
2023-03-05T14:14:54.869Z,47.40
2023-03-05T14:17:42.420Z,47.59
2023-03-05T14:20:13.684Z,47.56
2023-03-05T14:22:44.220Z,47.53
2023-03-05T14:25:35.328Z,47.35
2023-03-05T14:28:07.801Z,46.94
2023-03-05T14:30:37.067Z,46.73
2023-03-05T14:33:05.494Z,46.20
2023-03-05T14:35:34.349Z,45.88
2023-03-05T14:38:03.080Z,45.96
2023-03-05T14:40:36.681Z,45.67
2023-03-05T14:43:06.806Z,45.42
2023-03-05T14:45:38.294Z,45.43
2023-03-05T14:48:08.218Z,45.57
2023-03-05T14:50:44.568Z,45.46
2023-03-05T14:53:42.928Z,45.55
2023-03-05T14:56:24.930Z,45.97
2023-03-05T14:58:54.032Z,45.99
2023-03-05T15:01:22.167Z,45.82
2023-03-05T15:03:50.409Z,45.75
2023-03-05T15:06:26.317Z,45.55
2023-03-05T15:08:54.772Z,45.92
2023-03-05T15:11:23.227Z,46.10
2023-03-05T15:13:51.618Z,46.13
2023-03-05T15:16:20.412Z,45.84
2023-03-05T15:18:48.939Z,46.12
2023-03-05T15:21:17.287Z,46.60
2023-03-05T15:23:45.323Z,46.88
2023-03-05T15:26:15.182Z,46.92
2023-03-05T15:28:43.491Z,46.65
2023-03-05T15:31:11.706Z,46.85
2023-03-05T15:33:40.032Z,46.86
2023-03-05T15:36:08.904Z,47.20
2023-03-05T15:38:37.057Z,47.09
2023-03-05T15:41:05.660Z,46.94
2023-03-05T15:43:34.277Z,46.75
2023-03-05T15:46:05.576Z,46.47
2023-03-05T15:48:33.725Z,46.43
2023-03-05T15:51:01.867Z,46.33
2023-03-05T15:53:30.146Z,46.11
2023-03-05T15:55:58.327Z,46.16
2023-03-05T15:58:26.746Z,46.60
2023-03-05T16:00:55.898Z,46.22
2023-03-05T16:03:24.067Z,46.41
2023-03-05T16:05:52.209Z,46.84
2023-03-05T16:08:20.405Z,46.35
2023-03-05T16:10:49.404Z,46.50
2023-03-05T16:13:20.606Z,46.57
2023-03-05T16:15:49.723Z,46.29
2023-03-05T16:18:17.753Z,46.39
2023-03-05T16:20:46.136Z,46.68
2023-03-05T16:23:14.287Z,47.12
2023-03-05T16:25:42.881Z,47.57
2023-03-05T16:28:11.083Z,47.55
2023-03-05T16:30:39.267Z,47.94
2023-03-05T16:33:07.536Z,48.22
2023-03-05T16:35:35.853Z,48.39
2023-03-05T16:38:04.785Z,48.97
2023-03-05T16:41:02.906Z,48.83
2023-03-05T16:43:26.206Z,49.12
2023-03-05T16:45:54.664Z,49.33
2023-03-05T16:48:23.121Z,49.76
2023-03-05T16:50:51.588Z,50.09
2023-03-05T16:53:19.722Z,50.23
2023-03-05T16:55:47.777Z,50.39
2023-03-05T16:58:16.804Z,50.22
2023-03-05T17:00:45.112Z,50.63
2023-03-05T17:03:13.228Z,50.77
2023-03-05T17:05:41.952Z,51.09
2023-03-05T17:08:10.146Z,51.33
2023-03-05T17:10:38.874Z,51.69
2023-03-05T17:13:07.404Z,51.78
2023-03-05T17:15:35.646Z,51.94
2023-03-05T17:18:04.154Z,51.84
2023-03-05T17:20:32.444Z,51.90
2023-03-05T17:23:00.620Z,52.04
2023-03-05T17:25:29.814Z,52.29
2023-03-05T17:27:57.866Z,52.64
2023-03-05T17:30:25.918Z,52.99
2023-03-05T17:32:54.263Z,53.47
2023-03-05T17:35:23.134Z,53.83
2023-03-05T17:37:51.666Z,53.79
2023-03-05T17:40:19.752Z,53.83
2023-03-05T17:42:48.182Z,53.82
2023-03-05T17:45:16.679Z,53.90
2023-03-05T17:47:44.848Z,54.07
2023-03-05T17:50:14.254Z,54.14
2023-03-05T17:52:42.384Z,54.12
2023-03-05T17:55:13.468Z,54.21
2023-03-05T17:57:43.221Z,54.14
2023-03-05T18:00:18.983Z,54.20
2023-03-05T18:02:47.632Z,54.37
2023-03-05T18:05:17.031Z,54.47
2023-03-05T18:07:45.663Z,54.61
2023-03-05T18:10:15.521Z,54.79
2023-03-05T18:12:44.168Z,54.96
2023-03-05T18:15:14.953Z,55.00
2023-03-05T18:17:43.611Z,55.09
2023-03-05T18:20:31.914Z,55.32
2023-03-05T18:23:01.448Z,55.42
2023-03-05T18:25:30.810Z,55.74
2023-03-05T18:28:18.341Z,55.78
2023-03-05T18:30:47.023Z,55.88
2023-03-05T18:33:21.456Z,56.00
2023-03-05T18:35:51.431Z,56.13
2023-03-05T18:38:25.054Z,56.11
2023-03-05T18:40:56.273Z,56.14
2023-03-05T18:43:24.870Z,56.06
2023-03-05T18:45:55.861Z,56.22
2023-03-05T18:48:25.283Z,56.26
2023-03-05T18:50:54.463Z,56.24
2023-03-05T18:53:22.924Z,56.12
2023-03-05T18:55:52.799Z,56.12
2023-03-05T18:58:21.121Z,56.21
2023-03-05T19:00:49.164Z,56.27
2023-03-05T19:03:17.570Z,56.43
2023-03-05T19:05:45.621Z,56.76
2023-03-05T19:08:13.705Z,56.63
2023-03-05T19:10:42.362Z,56.83
2023-03-05T19:13:19.135Z,56.73
2023-03-05T19:15:47.342Z,56.59
2023-03-05T19:18:42.196Z,56.47
2023-03-05T19:21:10.811Z,56.41
2023-03-05T19:23:38.828Z,56.42
2023-03-05T19:26:07.090Z,56.43
2023-03-05T19:28:35.195Z,56.29
2023-03-05T19:31:04.073Z,56.24
2023-03-05T19:33:32.194Z,55.94
2023-03-05T19:36:00.719Z,55.90
2023-03-05T19:38:28.828Z,55.72
2023-03-05T19:40:56.957Z,55.32
2023-03-05T19:43:25.318Z,54.96
2023-03-05T19:45:59.799Z,54.64
2023-03-05T19:48:28.716Z,53.93
2023-03-05T19:50:57.344Z,53.62
2023-03-05T19:53:25.782Z,53.13
2023-03-05T19:55:54.293Z,52.81
2023-03-05T19:58:22.524Z,52.62
2023-03-05T20:00:50.972Z,52.53
2023-03-05T20:03:19.136Z,52.58
2023-03-05T20:05:47.415Z,52.67
2023-03-05T20:08:15.549Z,52.54
2023-03-05T20:10:44.486Z,52.61
2023-03-05T20:13:13.351Z,52.63
2023-03-05T20:15:41.680Z,52.64
2023-03-05T20:18:10.133Z,52.78
2023-03-05T20:20:38.390Z,52.64
2023-03-05T20:23:06.932Z,52.70
2023-03-05T20:25:35.182Z,52.90
2023-03-05T20:28:03.902Z,52.71
2023-03-05T20:30:32.008Z,52.84
2023-03-05T20:33:02.733Z,53.01
2023-03-05T20:35:30.974Z,53.12
2023-03-05T20:38:26.879Z,53.04
2023-03-05T20:40:59.183Z,53.26
2023-03-05T20:43:30.152Z,53.23
2023-03-05T20:45:59.828Z,53.23
2023-03-05T20:48:32.217Z,53.37
2023-03-05T20:51:13.671Z,53.43
2023-03-05T20:53:43.328Z,53.39
2023-03-05T20:56:11.461Z,53.51
2023-03-05T20:58:39.936Z,53.74
2023-03-05T21:01:08.356Z,53.78
2023-03-05T21:03:36.624Z,54.04
2023-03-05T21:06:06.251Z,54.16
2023-03-05T21:08:36.206Z,54.19
2023-03-05T21:11:05.872Z,54.30
2023-03-05T21:13:35.919Z,54.32
2023-03-05T21:16:09.618Z,54.42
2023-03-05T21:18:38.468Z,54.10
2023-03-05T21:21:07.008Z,54.26
2023-03-05T21:23:37.051Z,54.51
2023-03-05T21:26:06.237Z,54.49
2023-03-05T21:28:37.998Z,54.41
2023-03-05T21:31:08.544Z,54.34
2023-03-05T21:33:39.344Z,54.27
2023-03-05T21:36:11.359Z,53.94
2023-03-05T21:38:40.731Z,53.82
2023-03-05T21:41:10.286Z,54.07
2023-03-05T21:43:39.254Z,53.97
2023-03-05T21:46:11.345Z,53.95
2023-03-05T21:48:40.544Z,53.81
2023-03-05T21:51:09.584Z,53.64
2023-03-05T21:53:42.775Z,53.97
2023-03-05T21:56:13.002Z,54.10
2023-03-05T21:58:42.355Z,54.32
2023-03-05T22:01:10.968Z,54.57
2023-03-05T22:03:42.013Z,55.01
2023-03-05T22:06:12.064Z,55.22
2023-03-05T22:08:41.130Z,55.32
2023-03-05T22:11:11.445Z,55.36
2023-03-05T22:13:40.345Z,55.39
2023-03-05T22:16:09.478Z,55.85
2023-03-05T22:18:38.142Z,56.03
2023-03-05T22:21:16.199Z,56.36
2023-03-05T22:23:45.250Z,56.69
2023-03-05T22:26:13.699Z,57.31
2023-03-05T22:28:42.241Z,57.88
2023-03-05T22:31:10.870Z,58.35
2023-03-05T22:33:39.916Z,59.16
2023-03-05T22:36:10.013Z,60.05
2023-03-05T22:38:38.257Z,60.83
2023-03-05T22:41:12.618Z,61.43
2023-03-05T22:43:41.282Z,61.82
2023-03-05T22:46:15.579Z,62.29
2023-03-05T22:48:45.452Z,62.38
2023-03-05T22:51:14.250Z,63.00
2023-03-05T22:53:43.114Z,63.30
2023-03-05T22:56:15.906Z,63.52
2023-03-05T22:58:46.182Z,64.05
2023-03-05T23:01:16.694Z,64.31
2023-03-05T23:03:45.251Z,64.63
2023-03-05T23:06:13.092Z,64.83
2023-03-05T23:08:41.225Z,64.85
2023-03-05T23:11:11.932Z,64.94
2023-03-05T23:13:41.487Z,65.19
2023-03-05T23:16:10.959Z,65.19
2023-03-05T23:18:40.238Z,65.51
2023-03-05T23:21:08.587Z,65.41
2023-03-05T23:23:37.057Z,65.72
2023-03-05T23:26:05.871Z,65.62
2023-03-05T23:28:34.405Z,65.56
2023-03-05T23:31:03.305Z,65.61
2023-03-05T23:33:32.121Z,65.87
2023-03-05T23:36:01.052Z,65.66
2023-03-05T23:38:30.593Z,66.00
2023-03-05T23:41:00.959Z,66.00
2023-03-05T23:43:30.387Z,65.87
2023-03-05T23:45:59.006Z,65.98
2023-03-05T23:48:30.250Z,65.82
2023-03-05T23:50:58.828Z,65.78
2023-03-05T23:53:29.321Z,66.03
2023-03-05T23:55:58.237Z,66.01
2023-03-05T23:58:27.369Z,66.00
